createdAt,value
2018-06-27T00:02:22.030Z,14.60
2018-06-27T00:04:50.146Z,14.60
2018-06-27T00:07:18.335Z,14.60
2018-06-27T00:09:46.484Z,14.50
2018-06-27T00:12:14.619Z,14.40
2018-06-27T00:14:42.733Z,14.50
2018-06-27T00:19:38.741Z,14.50
2018-06-27T00:22:06.861Z,14.40
2018-06-27T00:24:34.982Z,14.30
2018-06-27T00:27:03.130Z,14.30
2018-06-27T00:29:31.266Z,14.20
2018-06-27T00:31:59.425Z,14.10
2018-06-27T00:34:27.545Z,14.10
2018-06-27T00:36:55.662Z,14.00
2018-06-27T00:39:23.825Z,14.00
2018-06-27T00:41:52.003Z,14.00
2018-06-27T00:44:20.158Z,13.90
2018-06-27T00:46:48.310Z,13.90
2018-06-27T00:49:16.443Z,14.00
2018-06-27T00:51:44.565Z,14.00
2018-06-27T00:54:12.718Z,14.00
2018-06-27T00:56:41.583Z,14.00
2018-06-27T00:59:10.039Z,13.90
2018-06-27T01:01:38.803Z,13.90
2018-06-27T01:04:06.973Z,13.90
2018-06-27T01:06:35.102Z,13.90
2018-06-27T01:09:04.366Z,13.90
2018-06-27T01:14:07.250Z,13.80
2018-06-27T01:16:35.391Z,13.90
2018-06-27T01:19:03.502Z,13.90
2018-06-27T01:21:31.647Z,13.80
2018-06-27T01:23:59.773Z,13.80
2018-06-27T01:26:27.878Z,13.80
2018-06-27T01:28:56.042Z,13.70
2018-06-27T01:31:24.138Z,13.70
2018-06-27T01:33:52.275Z,13.70
2018-06-27T01:36:20.386Z,13.70
2018-06-27T01:38:48.507Z,13.70
2018-06-27T01:41:16.665Z,13.70
2018-06-27T01:43:44.843Z,13.70
2018-06-27T01:46:12.958Z,13.70
2018-06-27T01:48:41.073Z,13.70
2018-06-27T01:53:37.997Z,13.70
2018-06-27T01:56:07.621Z,13.70
2018-06-27T01:58:35.742Z,13.70
2018-06-27T02:01:03.870Z,13.70
2018-06-27T02:03:32.000Z,13.70
2018-06-27T02:06:00.109Z,13.80
2018-06-27T02:08:28.235Z,13.80
2018-06-27T02:10:56.395Z,13.70
2018-06-27T02:13:24.609Z,13.70
2018-06-27T02:15:52.706Z,13.70
2018-06-27T02:18:20.842Z,13.70
2018-06-27T02:20:48.953Z,13.70
2018-06-27T02:23:17.058Z,13.60
2018-06-27T02:25:45.200Z,13.50
2018-06-27T02:28:13.368Z,13.40
2018-06-27T02:30:41.473Z,13.40
2018-06-27T02:33:09.574Z,13.40
2018-06-27T02:35:37.702Z,13.40
2018-06-27T02:38:05.807Z,13.40
2018-06-27T02:40:33.915Z,13.30
2018-06-27T02:43:02.057Z,13.30
2018-06-27T02:45:30.154Z,13.30
2018-06-27T02:47:58.287Z,13.20
2018-06-27T02:50:26.491Z,13.20
2018-06-27T02:52:54.605Z,13.20
2018-06-27T02:55:22.726Z,13.20
2018-06-27T02:57:50.894Z,13.20
2018-06-27T03:00:19.007Z,13.20
2018-06-27T03:02:47.602Z,13.20
2018-06-27T03:05:15.873Z,13.10
2018-06-27T03:07:44.586Z,13.20
2018-06-27T03:10:12.697Z,13.10
2018-06-27T03:12:40.824Z,13.10
2018-06-27T03:15:09.814Z,13.10
2018-06-27T03:17:38.097Z,13.20
2018-06-27T03:20:06.370Z,13.20
2018-06-27T03:22:34.530Z,13.20
2018-06-27T03:25:02.735Z,13.20
2018-06-27T03:27:30.866Z,13.20
2018-06-27T03:29:58.989Z,13.20
2018-06-27T03:32:27.105Z,13.20
2018-06-27T03:34:55.217Z,13.30
2018-06-27T03:37:23.375Z,13.30
2018-06-27T03:39:51.503Z,13.30
2018-06-27T03:42:19.617Z,13.30
2018-06-27T03:44:47.746Z,13.40
2018-06-27T03:47:15.870Z,13.40
2018-06-27T03:49:44.105Z,13.40
2018-06-27T03:52:12.230Z,13.50
2018-06-27T03:54:40.350Z,13.60
2018-06-27T03:57:08.489Z,13.60
2018-06-27T03:59:36.609Z,13.60
2018-06-27T04:02:04.763Z,13.70
2018-06-27T04:04:32.881Z,13.70
2018-06-27T04:07:01.027Z,13.70
2018-06-27T04:09:29.182Z,13.70
2018-06-27T04:11:57.285Z,13.70
2018-06-27T04:14:25.429Z,13.70
2018-06-27T04:16:53.858Z,13.70
2018-06-27T04:19:22.002Z,13.70
2018-06-27T04:21:50.109Z,13.70
2018-06-27T04:24:18.245Z,13.80
2018-06-27T04:26:46.357Z,13.70
2018-06-27T04:29:14.478Z,13.70
2018-06-27T04:31:42.606Z,13.80
2018-06-27T04:34:10.734Z,13.80
2018-06-27T04:36:38.858Z,13.80
2018-06-27T04:39:08.685Z,13.90
2018-06-27T04:41:36.854Z,13.90
2018-06-27T04:44:04.997Z,14.00
2018-06-27T04:46:33.310Z,14.00
2018-06-27T04:49:01.433Z,14.10
2018-06-27T04:51:29.550Z,14.10
2018-06-27T04:53:57.713Z,14.10
2018-06-27T04:56:25.825Z,14.20
2018-06-27T04:58:53.961Z,14.20
2018-06-27T05:01:22.090Z,14.20
2018-06-27T05:03:50.186Z,14.30
2018-06-27T05:06:18.308Z,14.30
2018-06-27T05:08:46.401Z,14.40
2018-06-27T05:11:14.569Z,14.40
2018-06-27T05:13:42.682Z,14.50
2018-06-27T05:18:38.766Z,14.60
2018-06-27T05:21:06.885Z,14.60
2018-06-27T05:23:35.071Z,14.70
2018-06-27T05:26:03.195Z,14.70
2018-06-27T05:28:31.354Z,14.70
2018-06-27T05:30:59.482Z,14.80
2018-06-27T05:33:27.585Z,14.80
2018-06-27T05:35:55.711Z,14.90
2018-06-27T05:38:23.822Z,14.90
2018-06-27T05:40:51.946Z,14.90
2018-06-27T05:43:20.064Z,14.90
2018-06-27T05:45:48.207Z,15.00
2018-06-27T05:48:16.340Z,15.00
2018-06-27T05:50:44.451Z,15.10
2018-06-27T05:53:12.594Z,15.10
2018-06-27T05:55:43.865Z,15.10
2018-06-27T05:58:12.124Z,15.20
2018-06-27T06:00:40.198Z,15.20
2018-06-27T06:03:08.316Z,15.20
2018-06-27T06:05:36.574Z,15.20
2018-06-27T06:08:04.879Z,15.40
2018-06-27T06:10:33.017Z,15.40
2018-06-27T06:13:01.125Z,15.40
2018-06-27T06:15:29.246Z,15.50
2018-06-27T06:17:58.501Z,15.60
2018-06-27T06:20:26.621Z,15.60
2018-06-27T06:22:54.742Z,15.60
2018-06-27T06:25:22.932Z,15.70
2018-06-27T06:27:53.277Z,15.70
2018-06-27T06:30:21.514Z,15.80
2018-06-27T06:35:17.606Z,15.90
2018-06-27T06:37:45.728Z,15.90
2018-06-27T06:40:13.841Z,15.90
2018-06-27T06:42:42.015Z,16.00
2018-06-27T06:45:10.129Z,16.00
2018-06-27T06:47:38.302Z,16.10
2018-06-27T06:50:06.426Z,16.10
2018-06-27T06:52:46.571Z,16.20
2018-06-27T06:55:14.742Z,16.20
2018-06-27T06:57:42.916Z,16.30
2018-06-27T07:00:11.195Z,16.40
2018-06-27T07:02:39.369Z,16.50
2018-06-27T07:05:07.539Z,16.50
2018-06-27T07:07:35.763Z,16.60
2018-06-27T07:10:03.934Z,16.60
2018-06-27T07:12:32.102Z,16.70
2018-06-27T07:17:28.190Z,16.80
2018-06-27T07:19:56.381Z,16.90
2018-06-27T07:22:24.542Z,17.00
2018-06-27T07:24:52.699Z,17.10
2018-06-27T07:27:20.946Z,17.10
2018-06-27T07:29:49.122Z,17.20
2018-06-27T07:32:17.283Z,17.20
2018-06-27T07:34:45.458Z,17.30
2018-06-27T07:37:13.626Z,17.40
2018-06-27T07:39:41.794Z,17.40
2018-06-27T07:42:10.114Z,17.50
2018-06-27T07:44:38.286Z,17.70
2018-06-27T07:47:06.802Z,17.80
2018-06-27T07:49:34.959Z,17.90
2018-06-27T07:54:35.793Z,18.30
2018-06-27T07:57:03.982Z,18.50
2018-06-27T07:59:32.151Z,18.70
2018-06-27T08:02:00.314Z,19.00
2018-06-27T08:04:28.559Z,19.20
2018-06-27T08:06:56.726Z,19.50
2018-06-27T08:09:24.920Z,19.70
2018-06-27T08:11:53.078Z,19.80
2018-06-27T08:14:21.251Z,19.80
2018-06-27T08:16:49.418Z,19.90
2018-06-27T08:19:17.598Z,19.90
2018-06-27T08:21:45.909Z,19.90
2018-06-27T08:24:14.066Z,20.00
2018-06-27T08:26:42.223Z,19.90
2018-06-27T08:29:10.414Z,19.90
2018-06-27T08:31:38.574Z,19.90
2018-06-27T08:34:08.764Z,19.90
2018-06-27T08:36:36.975Z,19.90
2018-06-27T08:39:07.904Z,19.90
2018-06-27T08:41:36.067Z,19.90
2018-06-27T08:44:04.367Z,20.00
2018-06-27T08:46:32.760Z,20.00
2018-06-27T08:49:00.926Z,20.00
2018-06-27T08:51:29.091Z,20.10
2018-06-27T08:53:57.315Z,20.10
2018-06-27T08:56:25.507Z,20.10
2018-06-27T08:58:54.359Z,20.20
2018-06-27T09:01:22.427Z,20.30
2018-06-27T09:03:50.590Z,20.30
2018-06-27T09:06:18.774Z,20.30
2018-06-27T09:08:46.934Z,20.30
2018-06-27T09:11:15.122Z,20.30
2018-06-27T09:13:43.322Z,20.30
2018-06-27T09:16:11.502Z,20.30
2018-06-27T09:18:39.725Z,20.40
2018-06-27T09:21:07.854Z,20.40
2018-06-27T09:23:36.030Z,20.40
2018-06-27T09:26:04.203Z,20.50
2018-06-27T09:28:32.386Z,20.50
2018-06-27T09:31:00.566Z,20.50
2018-06-27T09:33:28.729Z,20.60
2018-06-27T09:35:56.973Z,20.50
2018-06-27T09:38:25.153Z,20.60
2018-06-27T09:40:53.334Z,20.60
2018-06-27T09:43:21.492Z,20.60
2018-06-27T09:45:49.679Z,20.60
2018-06-27T09:48:17.914Z,20.50
2018-06-27T09:50:46.086Z,20.50
2018-06-27T09:53:14.258Z,20.60
2018-06-27T09:55:42.439Z,20.60
2018-06-27T09:58:10.596Z,20.70
2018-06-27T10:00:40.394Z,20.80
2018-06-27T10:03:09.767Z,20.80
2018-06-27T10:05:38.250Z,20.90
2018-06-27T10:08:06.714Z,20.80
2018-06-27T10:10:34.874Z,20.80
2018-06-27T10:13:03.054Z,20.80
2018-06-27T10:15:31.215Z,20.90
2018-06-27T10:17:59.379Z,21.00
2018-06-27T10:20:27.530Z,21.10
2018-06-27T10:22:55.686Z,21.10
2018-06-27T10:25:23.844Z,21.00
2018-06-27T10:27:52.042Z,21.00
2018-06-27T10:30:20.203Z,21.10
2018-06-27T10:32:48.387Z,21.20
2018-06-27T10:35:16.555Z,21.30
2018-06-27T10:37:44.731Z,21.40
2018-06-27T10:40:12.883Z,21.40
2018-06-27T10:42:41.038Z,21.40
2018-06-27T10:45:09.203Z,21.40
2018-06-27T10:47:37.362Z,21.50
2018-06-27T10:50:05.585Z,21.70
2018-06-27T10:52:33.738Z,21.60
2018-06-27T10:55:06.267Z,21.60
2018-06-27T10:57:34.453Z,21.50
2018-06-27T11:00:02.614Z,21.40
2018-06-27T11:02:30.778Z,21.50
2018-06-27T11:04:58.939Z,21.50
2018-06-27T11:07:27.108Z,21.50
2018-06-27T11:09:55.262Z,21.50
2018-06-27T11:12:23.443Z,21.60
2018-06-27T11:14:51.930Z,21.60
2018-06-27T11:17:20.087Z,21.60
2018-06-27T11:19:48.238Z,21.60
2018-06-27T11:22:16.399Z,21.70
2018-06-27T11:24:44.555Z,21.70
2018-06-27T11:27:12.748Z,21.60
2018-06-27T11:29:40.994Z,21.50
2018-06-27T11:34:37.142Z,21.40
2018-06-27T11:37:05.311Z,21.50
2018-06-27T11:39:33.486Z,21.60
2018-06-27T11:42:01.639Z,21.60
2018-06-27T11:44:29.810Z,21.50
2018-06-27T11:46:57.978Z,21.50
2018-06-27T11:49:26.146Z,21.50
2018-06-27T11:51:54.314Z,21.40
2018-06-27T11:54:22.499Z,21.40
2018-06-27T11:56:50.658Z,21.30
2018-06-27T11:59:18.831Z,21.30
2018-06-27T12:01:46.975Z,21.20
2018-06-27T12:04:15.151Z,21.20
2018-06-27T12:06:43.391Z,21.30
2018-06-27T12:09:11.959Z,21.40
2018-06-27T12:11:40.307Z,21.40
2018-06-27T12:14:08.472Z,21.40
2018-06-27T12:16:36.627Z,21.30
2018-06-27T12:19:04.822Z,21.40
2018-06-27T12:21:32.970Z,21.60
2018-06-27T12:24:01.151Z,21.70
2018-06-27T12:26:29.358Z,21.70
2018-06-27T12:28:57.465Z,21.90
2018-06-27T12:31:25.654Z,21.80
2018-06-27T12:33:53.834Z,21.70
2018-06-27T12:36:22.004Z,21.60
2018-06-27T12:38:50.162Z,21.70
2018-06-27T12:41:18.898Z,21.60
2018-06-27T12:43:47.334Z,21.60
2018-06-27T12:46:16.343Z,21.60
2018-06-27T12:48:46.403Z,21.80
2018-06-27T12:51:14.901Z,21.80
2018-06-27T12:53:43.576Z,21.70
2018-06-27T12:56:11.734Z,21.50
2018-06-27T12:58:40.576Z,21.60
2018-06-27T13:01:08.743Z,21.80
2018-06-27T13:03:36.888Z,22.00
2018-06-27T13:06:05.799Z,22.10
2018-06-27T13:08:33.946Z,22.10
2018-06-27T13:11:02.243Z,22.10
2018-06-27T13:13:30.394Z,22.20
2018-06-27T13:15:58.550Z,22.10
2018-06-27T13:18:26.718Z,22.10
2018-06-27T13:20:54.871Z,22.10
2018-06-27T13:23:23.096Z,22.20
2018-06-27T13:25:51.270Z,22.20
2018-06-27T13:28:19.426Z,22.10
2018-06-27T13:30:47.590Z,22.10
2018-06-27T13:33:15.742Z,22.00
2018-06-27T13:35:43.910Z,22.10
2018-06-27T13:38:12.068Z,22.00
2018-06-27T13:40:40.230Z,22.00
2018-06-27T13:43:08.390Z,22.00
2018-06-27T13:45:36.544Z,22.00
2018-06-27T13:48:05.055Z,22.00
2018-06-27T13:50:33.210Z,22.10
2018-06-27T13:53:01.393Z,22.10
2018-06-27T13:55:29.558Z,22.00
2018-06-27T13:57:57.802Z,22.10
2018-06-27T14:00:25.958Z,22.30
2018-06-27T14:02:54.118Z,22.40
2018-06-27T14:05:22.275Z,22.30
2018-06-27T14:07:50.422Z,22.40
2018-06-27T14:10:18.580Z,22.30
2018-06-27T14:12:46.754Z,22.40
2018-06-27T14:15:14.910Z,22.30
2018-06-27T14:17:43.153Z,22.30
2018-06-27T14:20:11.332Z,22.40
2018-06-27T14:22:39.506Z,22.40
2018-06-27T14:25:07.683Z,22.60
2018-06-27T14:27:35.852Z,22.50
2018-06-27T14:30:04.574Z,22.50
2018-06-27T14:32:32.747Z,22.50
2018-06-27T14:35:00.914Z,22.40
2018-06-27T14:37:29.094Z,22.30
2018-06-27T14:39:57.265Z,22.20
2018-06-27T14:42:25.410Z,22.30
2018-06-27T14:44:53.642Z,22.20
2018-06-27T14:47:21.904Z,22.30
2018-06-27T14:49:50.211Z,22.30
2018-06-27T14:52:18.534Z,22.40
2018-06-27T14:54:51.307Z,22.30
2018-06-27T14:57:19.937Z,22.40
2018-06-27T14:59:48.739Z,22.50
2018-06-27T15:02:16.875Z,22.40
2018-06-27T15:04:45.289Z,22.40
2018-06-27T15:07:13.430Z,22.60
2018-06-27T15:09:42.433Z,22.60
2018-06-27T15:12:10.625Z,22.50
2018-06-27T15:14:38.799Z,22.50
2018-06-27T15:17:06.969Z,22.40
2018-06-27T15:19:35.187Z,22.40
2018-06-27T15:22:03.382Z,22.40
2018-06-27T15:24:31.546Z,22.60
2018-06-27T15:26:59.710Z,22.70
2018-06-27T15:29:27.882Z,22.90
2018-06-27T15:31:56.031Z,23.20
2018-06-27T15:34:24.198Z,23.40
2018-06-27T15:36:52.358Z,23.60
2018-06-27T15:39:20.538Z,23.70
2018-06-27T15:41:48.793Z,23.80
2018-06-27T15:44:16.944Z,23.80
2018-06-27T15:46:45.096Z,23.80
2018-06-27T15:49:13.254Z,23.80
2018-06-27T15:51:41.456Z,23.90
2018-06-27T15:54:09.663Z,24.00
2018-06-27T15:56:37.843Z,23.90
2018-06-27T15:59:06.005Z,23.80
2018-06-27T16:04:02.194Z,23.80
2018-06-27T16:06:30.283Z,23.80
2018-06-27T16:08:58.456Z,23.80
2018-06-27T16:11:26.638Z,23.70
2018-06-27T16:13:54.779Z,23.60
2018-06-27T16:16:22.938Z,23.70
2018-06-27T16:18:51.118Z,23.60
2018-06-27T16:21:19.290Z,23.60
2018-06-27T16:23:47.458Z,23.60
2018-06-27T16:26:15.685Z,23.50
2018-06-27T16:28:43.918Z,23.50
2018-06-27T16:31:12.124Z,23.50
2018-06-27T16:33:40.283Z,23.50
2018-06-27T16:36:08.487Z,23.40
2018-06-27T16:38:36.673Z,23.40
2018-06-27T16:41:04.842Z,23.30
2018-06-27T16:43:33.043Z,23.30
2018-06-27T16:46:01.173Z,23.30
2018-06-27T16:48:29.336Z,23.40
2018-06-27T16:50:57.624Z,23.40
2018-06-27T16:53:25.813Z,23.30
2018-06-27T16:55:53.987Z,23.20
2018-06-27T16:58:22.154Z,23.30
2018-06-27T17:00:50.313Z,23.20
2018-06-27T17:03:18.492Z,23.30
2018-06-27T17:05:46.630Z,23.30
2018-06-27T17:08:14.830Z,23.30
2018-06-27T17:10:43.026Z,23.30
2018-06-27T17:13:11.724Z,23.30
2018-06-27T17:15:40.102Z,23.20
2018-06-27T17:18:08.323Z,23.30
2018-06-27T17:20:36.467Z,23.20
2018-06-27T17:23:04.749Z,23.20
2018-06-27T17:25:32.866Z,23.20
2018-06-27T17:28:01.108Z,23.20
2018-06-27T17:30:29.258Z,23.10
2018-06-27T17:32:57.438Z,23.00
2018-06-27T17:35:25.647Z,22.90
2018-06-27T17:37:53.811Z,22.80
2018-06-27T17:40:21.983Z,22.80
2018-06-27T17:45:18.094Z,22.70
2018-06-27T17:47:46.328Z,22.70
2018-06-27T17:50:14.498Z,22.70
2018-06-27T17:52:42.658Z,22.70
2018-06-27T17:55:10.870Z,22.60
2018-06-27T17:57:39.067Z,22.50
2018-06-27T18:00:07.510Z,22.50
2018-06-27T18:02:35.675Z,22.40
2018-06-27T18:05:03.861Z,22.40
2018-06-27T18:07:32.136Z,22.30
2018-06-27T18:10:00.518Z,22.30
2018-06-27T18:12:28.674Z,22.30
2018-06-27T18:14:56.866Z,22.20
2018-06-27T18:17:25.038Z,22.20
2018-06-27T18:19:53.230Z,22.20
2018-06-27T18:22:21.394Z,22.30
2018-06-27T18:24:49.594Z,22.30
2018-06-27T18:27:17.767Z,22.30
2018-06-27T18:29:45.922Z,22.20
2018-06-27T18:32:14.090Z,22.20
2018-06-27T18:34:42.251Z,22.10
2018-06-27T18:37:10.442Z,22.10
2018-06-27T18:39:38.610Z,22.00
2018-06-27T18:42:06.779Z,21.90
2018-06-27T18:44:34.946Z,21.90
2018-06-27T18:47:03.155Z,21.90
2018-06-27T18:49:31.411Z,21.80
2018-06-27T18:51:59.570Z,21.80
2018-06-27T18:54:27.778Z,21.70
2018-06-27T18:56:55.959Z,21.70
2018-06-27T18:59:24.126Z,21.60
2018-06-27T19:01:52.423Z,21.50
2018-06-27T19:04:20.951Z,21.50
2018-06-27T19:06:49.146Z,21.40
2018-06-27T19:09:17.327Z,21.40
2018-06-27T19:14:13.406Z,21.40
2018-06-27T19:16:41.638Z,21.30
2018-06-27T19:19:09.816Z,21.30
2018-06-27T19:21:37.998Z,21.30
2018-06-27T19:24:06.193Z,21.20
2018-06-27T19:29:02.452Z,21.20
2018-06-27T19:31:30.658Z,21.20
2018-06-27T19:33:58.924Z,21.10
2018-06-27T19:36:27.082Z,21.10
2018-06-27T19:41:23.217Z,21.00
2018-06-27T19:43:51.338Z,21.00
2018-06-27T19:46:19.600Z,21.00
2018-06-27T19:48:47.824Z,20.90
2018-06-27T19:51:16.012Z,20.90
2018-06-27T19:53:44.126Z,20.80
2018-06-27T19:56:12.301Z,20.80
2018-06-27T19:58:40.495Z,20.70
2018-06-27T20:01:08.694Z,20.70
2018-06-27T20:03:36.872Z,20.70
2018-06-27T20:06:05.019Z,20.60
2018-06-27T20:08:33.200Z,20.60
2018-06-27T20:11:01.367Z,20.60
2018-06-27T20:13:29.570Z,20.50
2018-06-27T20:15:57.764Z,20.50
2018-06-27T20:18:25.930Z,20.40
2018-06-27T20:20:54.130Z,20.40
2018-06-27T20:23:22.638Z,20.40
2018-06-27T20:25:50.798Z,20.30
2018-06-27T20:28:19.210Z,20.30
2018-06-27T20:30:47.414Z,20.20
2018-06-27T20:33:15.634Z,20.20
2018-06-27T20:35:43.794Z,20.10
2018-06-27T20:38:12.070Z,20.10
2018-06-27T20:40:40.347Z,20.10
2018-06-27T20:43:08.530Z,20.00
2018-06-27T20:45:36.742Z,19.90
2018-06-27T20:48:04.939Z,19.90
2018-06-27T20:50:33.120Z,19.90
2018-06-27T20:53:01.318Z,19.90
2018-06-27T20:55:29.558Z,19.80
2018-06-27T20:57:57.666Z,19.80
2018-06-27T21:00:25.899Z,19.80
2018-06-27T21:02:54.141Z,19.70
2018-06-27T21:05:22.420Z,19.70
2018-06-27T21:07:50.782Z,19.70
2018-06-27T21:10:18.954Z,19.70
2018-06-27T21:12:47.115Z,19.60
2018-06-27T21:15:15.270Z,19.60
2018-06-27T21:17:43.423Z,19.60
2018-06-27T21:20:11.640Z,19.50
2018-06-27T21:22:39.763Z,19.50
2018-06-27T21:25:07.939Z,19.50
2018-06-27T21:27:36.216Z,19.50
2018-06-27T21:30:04.863Z,19.50
2018-06-27T21:32:33.020Z,19.40
2018-06-27T21:35:01.265Z,19.30
2018-06-27T21:37:29.471Z,19.40
2018-06-27T21:39:57.646Z,19.30
2018-06-27T21:42:25.907Z,19.30
2018-06-27T21:44:54.095Z,19.30
2018-06-27T21:47:22.284Z,19.20
2018-06-27T21:49:50.442Z,19.20
2018-06-27T21:52:18.613Z,19.20
2018-06-27T21:54:46.790Z,19.20
2018-06-27T21:57:14.970Z,19.10
2018-06-27T21:59:43.136Z,19.00
2018-06-27T22:02:11.298Z,19.00
2018-06-27T22:04:39.451Z,19.00
2018-06-27T22:07:07.677Z,19.00
2018-06-27T22:09:35.858Z,19.00
2018-06-27T22:12:04.034Z,18.90
2018-06-27T22:14:32.190Z,18.90
2018-06-27T22:17:00.364Z,18.90
2018-06-27T22:21:56.446Z,18.90
2018-06-27T22:24:24.674Z,18.80
2018-06-27T22:26:52.847Z,18.80
2018-06-27T22:29:21.019Z,18.80
2018-06-27T22:31:49.194Z,18.80
2018-06-27T22:34:17.351Z,18.70
2018-06-27T22:36:45.524Z,18.60
2018-06-27T22:39:13.686Z,18.60
2018-06-27T22:41:41.912Z,18.60
2018-06-27T22:44:10.036Z,18.60
2018-06-27T22:46:38.186Z,18.60
2018-06-27T22:49:06.366Z,18.50
2018-06-27T22:51:34.518Z,18.40
2018-06-27T22:54:02.747Z,18.40
2018-06-27T22:56:30.929Z,18.40
2018-06-27T22:58:59.108Z,18.40
2018-06-27T23:01:27.310Z,18.30
2018-06-27T23:03:55.822Z,18.30
2018-06-27T23:06:24.094Z,18.30
2018-06-27T23:08:52.286Z,18.30
2018-06-27T23:11:20.489Z,18.20
2018-06-27T23:13:48.674Z,18.20
2018-06-27T23:16:16.837Z,18.10
2018-06-27T23:18:44.998Z,18.00
2018-06-27T23:21:13.216Z,18.00
2018-06-27T23:23:41.436Z,18.00
2018-06-27T23:26:09.596Z,17.90
2018-06-27T23:28:37.763Z,17.90
2018-06-27T23:31:06.050Z,17.90
2018-06-27T23:33:34.242Z,17.90
2018-06-27T23:36:02.395Z,17.80
2018-06-27T23:38:30.643Z,17.80
2018-06-27T23:43:26.746Z,17.80
2018-06-27T23:45:54.906Z,17.70
2018-06-27T23:48:23.068Z,17.70
2018-06-27T23:50:51.229Z,17.70
2018-06-27T23:53:19.402Z,17.70
2018-06-27T23:55:47.562Z,17.60
2018-06-27T23:58:15.722Z,17.60
